createdAt,value
2022-12-29T00:00:56.534Z,1.10
2022-12-29T00:03:23.632Z,1.52
2022-12-29T00:05:57.269Z,1.27
2022-12-29T00:08:40.141Z,0.98
2022-12-29T00:11:14.755Z,1.17
2022-12-29T00:14:00.996Z,1.25
2022-12-29T00:16:29.328Z,1.05
2022-12-29T00:18:56.321Z,1.20
2022-12-29T00:21:43.562Z,1.58
2022-12-29T00:24:26.399Z,0.95
2022-12-29T00:27:17.908Z,1.40
2022-12-29T00:30:03.788Z,0.90
2022-12-29T00:32:49.849Z,1.40
2022-12-29T00:35:30.231Z,1.27
2022-12-29T00:38:20.944Z,1.00
2022-12-29T00:41:06.474Z,1.20
2022-12-29T00:43:52.812Z,1.08
2022-12-29T00:46:20.445Z,1.00
2022-12-29T00:49:05.924Z,1.10
2022-12-29T00:51:32.852Z,0.80
2022-12-29T00:53:59.792Z,1.13
2022-12-29T00:56:26.715Z,1.05
2022-12-29T00:58:53.664Z,1.00
2022-12-29T01:01:20.830Z,0.95
2022-12-29T01:03:47.814Z,1.23
2022-12-29T01:06:15.700Z,0.98
2022-12-29T01:08:42.664Z,0.93
2022-12-29T01:11:13.789Z,1.05
2022-12-29T01:13:42.173Z,1.10
2022-12-29T01:16:09.191Z,1.17
2022-12-29T01:18:36.226Z,1.15
2022-12-29T01:21:07.329Z,1.48
2022-12-29T01:23:34.475Z,1.10
2022-12-29T01:26:13.475Z,1.33
2022-12-29T01:28:42.429Z,0.93
2022-12-29T01:31:10.494Z,1.10
2022-12-29T01:33:37.903Z,1.13
2022-12-29T01:36:08.240Z,1.08
2022-12-29T01:38:37.084Z,0.90
2022-12-29T01:41:05.662Z,0.98
2022-12-29T01:43:52.199Z,1.08
2022-12-29T01:46:27.433Z,1.10
2022-12-29T01:49:05.934Z,0.85
2022-12-29T01:51:39.927Z,0.80
2022-12-29T01:54:17.128Z,0.85
2022-12-29T01:56:44.864Z,1.20
2022-12-29T01:59:18.802Z,0.93
2022-12-29T02:01:46.270Z,0.88
2022-12-29T02:04:14.071Z,0.90
2022-12-29T02:07:00.456Z,0.88
2022-12-29T02:09:27.482Z,0.95
2022-12-29T02:11:54.807Z,0.85
2022-12-29T02:14:21.707Z,0.80
2022-12-29T02:17:27.806Z,1.05
2022-12-29T02:20:41.673Z,0.90
2022-12-29T02:23:34.247Z,0.88
2022-12-29T02:26:44.180Z,1.05
2022-12-29T02:29:25.737Z,1.10
2022-12-29T02:32:06.668Z,1.10
2022-12-29T02:35:00.674Z,0.93
2022-12-29T02:37:38.306Z,0.90
2022-12-29T02:40:29.153Z,0.88
2022-12-29T02:43:15.052Z,1.00
2022-12-29T02:46:20.338Z,1.10
2022-12-29T02:48:55.432Z,1.25
2022-12-29T02:51:48.033Z,1.00
2022-12-29T02:54:37.028Z,0.73
2022-12-29T02:57:04.250Z,1.10
2022-12-29T02:59:31.433Z,1.00
2022-12-29T03:02:47.086Z,1.00
2022-12-29T03:05:27.583Z,0.98
2022-12-29T03:08:32.923Z,0.90
2022-12-29T03:11:30.964Z,1.10
2022-12-29T03:14:46.409Z,1.08
2022-12-29T03:17:36.644Z,0.80
2022-12-29T03:20:10.407Z,0.82
2022-12-29T03:22:45.947Z,0.93
2022-12-29T03:25:28.889Z,1.27
2022-12-29T03:28:06.062Z,1.23
2022-12-29T03:30:40.371Z,0.95
2022-12-29T03:33:13.504Z,0.98
2022-12-29T03:35:44.827Z,0.73
2022-12-29T03:38:19.419Z,0.77
2022-12-29T03:40:56.655Z,0.73
2022-12-29T03:43:26.921Z,0.80
2022-12-29T03:45:55.399Z,0.80
2022-12-29T03:48:22.953Z,0.98
2022-12-29T03:50:51.463Z,1.40
2022-12-29T03:53:19.937Z,0.68
2022-12-29T03:55:47.595Z,0.90
2022-12-29T03:58:14.574Z,0.90
2022-12-29T04:00:51.985Z,1.08
2022-12-29T04:03:19.087Z,1.20
2022-12-29T04:05:46.031Z,1.00
2022-12-29T04:08:13.054Z,0.73
2022-12-29T04:10:40.242Z,1.10
2022-12-29T04:13:07.843Z,0.65
2022-12-29T04:15:35.624Z,0.63
2022-12-29T04:18:02.860Z,0.90
2022-12-29T04:20:48.074Z,0.95
2022-12-29T04:23:15.193Z,0.95
2022-12-29T04:25:45.898Z,0.90
2022-12-29T04:28:15.294Z,0.77
2022-12-29T04:31:01.598Z,1.05
2022-12-29T04:33:40.756Z,0.88
2022-12-29T04:36:08.028Z,0.60
2022-12-29T04:38:36.943Z,0.77
2022-12-29T04:41:05.366Z,0.88
2022-12-29T04:43:33.631Z,0.77
2022-12-29T04:46:24.209Z,0.70
2022-12-29T04:49:09.179Z,0.63
2022-12-29T04:51:53.438Z,0.60
2022-12-29T04:54:20.886Z,0.95
2022-12-29T04:56:55.696Z,0.88
2022-12-29T04:59:22.720Z,0.70
2022-12-29T05:01:53.017Z,0.80
2022-12-29T05:04:20.122Z,0.80
2022-12-29T05:06:48.579Z,0.80
2022-12-29T05:09:15.562Z,1.10
2022-12-29T05:11:42.558Z,0.90
2022-12-29T05:14:10.396Z,0.90
2022-12-29T05:16:38.303Z,0.90
2022-12-29T05:19:06.031Z,0.73
2022-12-29T05:21:33.770Z,0.90
2022-12-29T05:24:00.902Z,0.80
2022-12-29T05:26:28.740Z,1.17
2022-12-29T05:29:05.571Z,1.00
2022-12-29T05:31:33.612Z,0.80
2022-12-29T05:34:01.168Z,0.75
2022-12-29T05:36:31.654Z,0.98
2022-12-29T05:39:03.793Z,0.63
2022-12-29T05:41:31.283Z,0.70
2022-12-29T05:44:16.819Z,0.77
2022-12-29T05:46:45.239Z,0.82
2022-12-29T05:49:18.823Z,0.98
2022-12-29T05:52:08.727Z,0.88
2022-12-29T05:54:36.199Z,0.90
2022-12-29T05:57:08.435Z,0.70
2022-12-29T05:59:35.471Z,0.88
2022-12-29T06:02:03.050Z,0.90
2022-12-29T06:04:30.091Z,0.80
2022-12-29T06:06:57.388Z,1.10
2022-12-29T06:09:36.266Z,0.80
2022-12-29T06:12:04.553Z,0.68
2022-12-29T06:14:31.503Z,0.73
2022-12-29T06:16:59.333Z,0.93
2022-12-29T06:19:26.473Z,0.85
2022-12-29T06:21:54.001Z,0.98
2022-12-29T06:24:21.841Z,1.10
2022-12-29T06:26:48.817Z,0.80
2022-12-29T06:29:18.017Z,1.10
2022-12-29T06:31:50.260Z,0.95
2022-12-29T06:34:17.481Z,1.00
2022-12-29T06:36:44.401Z,1.02
2022-12-29T06:39:12.038Z,0.93
2022-12-29T06:41:39.138Z,1.00
2022-12-29T06:44:29.053Z,1.10
2022-12-29T06:47:00.974Z,1.10
2022-12-29T06:49:27.891Z,1.20
2022-12-29T06:51:54.859Z,1.02
2022-12-29T06:54:21.777Z,0.85
2022-12-29T06:56:48.721Z,1.20
2022-12-29T06:59:15.624Z,1.33
2022-12-29T07:01:42.689Z,0.88
2022-12-29T07:04:09.676Z,1.15
2022-12-29T07:06:36.937Z,1.13
2022-12-29T07:09:03.900Z,1.13
2022-12-29T07:11:30.804Z,1.40
2022-12-29T07:14:04.508Z,1.42
2022-12-29T07:16:32.564Z,1.40
2022-12-29T07:19:00.435Z,1.08
2022-12-29T07:21:27.365Z,1.17
2022-12-29T07:23:55.839Z,1.33
2022-12-29T07:26:22.879Z,1.10
2022-12-29T07:28:49.809Z,1.10
2022-12-29T07:31:21.176Z,0.93
2022-12-29T07:33:49.169Z,1.25
2022-12-29T07:36:18.253Z,1.30
2022-12-29T07:38:45.193Z,1.45
2022-12-29T07:41:12.146Z,1.50
2022-12-29T07:43:39.692Z,1.40
2022-12-29T07:46:55.492Z,1.38
2022-12-29T07:49:19.802Z,1.15
2022-12-29T07:51:46.711Z,1.33
2022-12-29T07:54:13.750Z,1.52
2022-12-29T07:56:40.708Z,1.40
2022-12-29T07:59:07.745Z,1.30
2022-12-29T08:01:34.792Z,1.08
2022-12-29T08:04:01.920Z,1.38
2022-12-29T08:06:30.032Z,1.23
2022-12-29T08:08:57.908Z,1.20
2022-12-29T08:11:25.082Z,1.48
2022-12-29T08:13:52.464Z,1.50
2022-12-29T08:16:19.595Z,1.60
2022-12-29T08:18:46.523Z,1.52
2022-12-29T08:21:13.461Z,1.10
2022-12-29T08:23:40.416Z,1.35
2022-12-29T08:26:07.343Z,1.00
2022-12-29T08:28:34.336Z,1.20
2022-12-29T08:31:03.931Z,1.40
2022-12-29T08:33:31.029Z,1.25
2022-12-29T08:36:06.911Z,1.15
2022-12-29T08:38:34.163Z,1.27
2022-12-29T08:41:04.447Z,1.60
2022-12-29T08:43:31.776Z,1.48
2022-12-29T08:45:59.720Z,1.40
2022-12-29T08:48:27.584Z,2.00
2022-12-29T08:50:54.837Z,1.35
2022-12-29T08:53:21.884Z,1.10
2022-12-29T08:56:04.213Z,1.38
2022-12-29T08:58:38.152Z,1.10
2022-12-29T09:01:05.384Z,1.13
2022-12-29T09:06:21.371Z,1.40
2022-12-29T09:08:48.273Z,1.50
2022-12-29T09:11:23.139Z,1.40
2022-12-29T09:13:50.823Z,1.45
2022-12-29T09:16:18.995Z,1.50
2022-12-29T09:18:46.184Z,1.63
2022-12-29T09:21:13.679Z,1.77
2022-12-29T09:23:41.359Z,1.45
2022-12-29T09:26:09.600Z,1.30
2022-12-29T09:28:37.743Z,1.40
2022-12-29T09:31:05.203Z,1.33
2022-12-29T09:33:34.361Z,2.13
2022-12-29T09:36:01.321Z,1.50
2022-12-29T09:38:29.427Z,1.27
2022-12-29T09:41:14.134Z,1.48
2022-12-29T09:44:16.304Z,1.30
2022-12-29T09:46:49.091Z,1.17
2022-12-29T09:49:46.962Z,1.65
2022-12-29T09:52:32.019Z,1.23
2022-12-29T09:55:33.147Z,1.38
2022-12-29T09:58:06.712Z,1.67
2022-12-29T10:01:01.322Z,1.40
2022-12-29T10:03:54.235Z,1.40
2022-12-29T10:07:19.405Z,1.20
2022-12-29T10:09:46.587Z,1.50
2022-12-29T10:12:30.880Z,1.42
2022-12-29T10:15:33.150Z,1.50
2022-12-29T10:18:25.085Z,1.42
2022-12-29T10:21:40.789Z,1.70
2022-12-29T10:24:12.562Z,1.50
2022-12-29T10:26:44.848Z,1.70
2022-12-29T10:29:21.326Z,1.70
2022-12-29T10:32:05.914Z,1.40
2022-12-29T10:34:39.371Z,1.63
2022-12-29T10:37:16.958Z,1.80
2022-12-29T10:39:53.006Z,1.40
2022-12-29T10:42:38.333Z,2.28
2022-12-29T10:45:07.070Z,1.80
2022-12-29T10:47:53.875Z,1.48
2022-12-29T10:50:21.217Z,1.33
2022-12-29T10:52:49.438Z,1.33
2022-12-29T10:55:51.546Z,1.00
2022-12-29T10:58:21.836Z,1.48
2022-12-29T11:00:55.242Z,0.97
2022-12-29T11:04:00.031Z,0.93
2022-12-29T11:06:30.181Z,1.33
2022-12-29T11:09:17.078Z,1.10
2022-12-29T11:11:44.067Z,0.82
2022-12-29T11:14:22.347Z,0.73
2022-12-29T11:17:01.663Z,0.93
2022-12-29T11:19:36.112Z,1.00
2022-12-29T11:22:32.911Z,0.80
2022-12-29T11:25:13.180Z,0.80
2022-12-29T11:27:40.761Z,1.08
2022-12-29T11:30:25.963Z,0.85
2022-12-29T11:32:55.525Z,1.20
2022-12-29T11:35:37.304Z,1.70
2022-12-29T11:38:22.995Z,1.17
2022-12-29T11:40:50.667Z,1.05
2022-12-29T11:43:44.063Z,1.52
2022-12-29T11:46:37.282Z,1.20
2022-12-29T11:49:05.453Z,1.15
2022-12-29T11:51:44.873Z,1.25
2022-12-29T11:54:32.193Z,1.40
2022-12-29T11:57:09.832Z,1.30
2022-12-29T11:59:44.622Z,0.80
2022-12-29T12:02:42.613Z,0.90
2022-12-29T12:05:24.177Z,1.05
2022-12-29T12:08:01.915Z,1.35
2022-12-29T12:11:03.121Z,1.42
2022-12-29T12:13:46.894Z,1.02
2022-12-29T12:16:19.320Z,1.10
2022-12-29T12:19:13.347Z,1.35
2022-12-29T12:21:46.066Z,1.08
2022-12-29T12:24:48.281Z,1.10
2022-12-29T12:27:21.653Z,1.25
2022-12-29T12:30:12.969Z,0.80
2022-12-29T12:32:43.876Z,0.82
2022-12-29T12:38:33.535Z,1.00
2022-12-29T12:41:39.596Z,0.75
2022-12-29T12:44:56.523Z,0.90
2022-12-29T12:47:40.562Z,0.95
2022-12-29T12:50:30.365Z,1.00
2022-12-29T12:53:38.624Z,0.90
2022-12-29T12:56:52.547Z,1.00
2022-12-29T12:59:51.537Z,0.93
2022-12-29T13:02:39.421Z,0.93
2022-12-29T13:05:33.405Z,0.70
2022-12-29T13:08:45.283Z,1.20
2022-12-29T13:11:26.730Z,1.10
2022-12-29T13:14:24.019Z,1.20
2022-12-29T13:17:16.433Z,0.88
2022-12-29T13:20:12.245Z,0.90
2022-12-29T13:23:05.452Z,1.00
2022-12-29T13:25:43.900Z,0.90
2022-12-29T13:29:11.907Z,1.15
2022-12-29T13:32:07.868Z,1.00
2022-12-29T13:35:21.928Z,1.13
2022-12-29T13:38:11.272Z,1.10
2022-12-29T13:40:46.267Z,1.10
2022-12-29T13:43:17.052Z,1.50
2022-12-29T13:45:46.309Z,1.13
2022-12-29T13:48:22.469Z,1.10
2022-12-29T13:50:58.310Z,1.05
2022-12-29T13:54:17.588Z,1.58
2022-12-29T13:56:52.762Z,1.58
2022-12-29T13:59:27.671Z,1.20
2022-12-29T14:02:09.744Z,1.25
2022-12-29T14:04:37.363Z,1.20
2022-12-29T14:07:17.928Z,1.70
2022-12-29T14:09:55.950Z,1.67
2022-12-29T14:12:31.284Z,1.70
2022-12-29T14:15:09.671Z,1.50
2022-12-29T14:17:44.633Z,1.17
2022-12-29T14:20:23.829Z,1.40
2022-12-29T14:23:09.873Z,1.27
2022-12-29T14:25:58.343Z,1.35
2022-12-29T14:28:39.040Z,1.27
2022-12-29T14:31:31.944Z,1.10
2022-12-29T14:34:07.977Z,1.38
2022-12-29T14:36:38.735Z,1.80
2022-12-29T14:39:37.382Z,1.50
2022-12-29T14:42:10.420Z,1.85
2022-12-29T14:44:56.115Z,2.10
2022-12-29T14:47:37.834Z,1.92
2022-12-29T14:50:26.097Z,1.80
2022-12-29T14:53:04.180Z,1.88
2022-12-29T14:55:40.871Z,2.03
2022-12-29T14:58:33.206Z,1.70
2022-12-29T15:01:05.124Z,1.92
2022-12-29T15:03:53.590Z,1.83
2022-12-29T15:06:23.280Z,1.88
2022-12-29T15:08:52.060Z,1.33
2022-12-29T15:11:36.389Z,1.58
2022-12-29T15:14:04.222Z,1.90
2022-12-29T15:16:37.673Z,1.10
2022-12-29T15:19:06.136Z,0.90
2022-12-29T15:21:36.475Z,1.00
2022-12-29T15:24:05.017Z,1.02
2022-12-29T15:26:41.326Z,1.02
2022-12-29T15:29:41.861Z,1.10
2022-12-29T15:32:28.422Z,0.93
2022-12-29T15:35:00.932Z,0.82
2022-12-29T15:37:36.821Z,0.90
2022-12-29T15:40:04.921Z,0.85
2022-12-29T15:42:56.703Z,1.05
2022-12-29T15:45:33.100Z,0.90
2022-12-29T15:48:00.703Z,1.08
2022-12-29T15:50:31.584Z,0.93
2022-12-29T15:52:59.986Z,1.25
2022-12-29T15:55:39.685Z,1.10
2022-12-29T15:58:21.715Z,1.33
2022-12-29T16:00:55.604Z,0.80
2022-12-29T16:03:26.194Z,1.10
2022-12-29T16:06:09.035Z,0.90
2022-12-29T16:08:41.128Z,0.98
2022-12-29T16:11:41.558Z,0.70
2022-12-29T16:14:16.165Z,0.90
2022-12-29T16:16:45.743Z,0.80
2022-12-29T16:19:38.302Z,1.08
2022-12-29T16:22:18.387Z,1.42
2022-12-29T16:24:46.484Z,1.90
2022-12-29T16:27:40.874Z,2.17
2022-12-29T16:30:24.330Z,1.92
2022-12-29T16:33:00.567Z,2.30
2022-12-29T16:35:30.908Z,2.30
2022-12-29T16:38:19.113Z,2.10
2022-12-29T16:41:03.418Z,2.10
2022-12-29T16:43:42.597Z,1.38
2022-12-29T16:46:32.887Z,1.45
2022-12-29T16:49:00.094Z,1.35
2022-12-29T16:51:37.231Z,1.10
2022-12-29T16:54:05.140Z,1.30
2022-12-29T16:56:36.273Z,1.55
2022-12-29T16:59:17.247Z,1.25
2022-12-29T17:01:44.594Z,1.40
2022-12-29T17:04:14.464Z,1.65
2022-12-29T17:06:41.945Z,1.90
2022-12-29T17:09:27.477Z,2.30
2022-12-29T17:12:08.814Z,1.98
2022-12-29T17:14:59.904Z,1.50
2022-12-29T17:17:43.403Z,1.50
2022-12-29T17:20:29.143Z,1.27
2022-12-29T17:22:56.811Z,1.20
2022-12-29T17:25:33.303Z,1.13
2022-12-29T17:28:05.000Z,1.08
2022-12-29T17:30:35.932Z,1.10
2022-12-29T17:33:13.323Z,1.10
2022-12-29T17:35:40.245Z,1.02
2022-12-29T17:38:19.879Z,1.08
2022-12-29T17:40:47.252Z,0.93
2022-12-29T17:43:16.470Z,1.10
2022-12-29T17:45:45.101Z,1.20
2022-12-29T17:48:15.345Z,1.30
2022-12-29T17:50:43.876Z,1.60
2022-12-29T17:53:19.766Z,2.40
2022-12-29T17:55:46.845Z,2.00
2022-12-29T17:58:23.676Z,1.75
2022-12-29T18:00:54.804Z,1.80
2022-12-29T18:03:28.681Z,1.23
2022-12-29T18:05:56.266Z,1.50
2022-12-29T18:08:23.364Z,1.50
2022-12-29T18:10:53.809Z,1.50
2022-12-29T18:13:43.622Z,1.48
2022-12-29T18:16:13.580Z,1.48
2022-12-29T18:18:40.597Z,1.80
2022-12-29T18:21:17.064Z,2.13
2022-12-29T18:23:44.363Z,2.35
2022-12-29T18:26:27.692Z,2.03
2022-12-29T18:28:56.670Z,2.22
2022-12-29T18:31:30.552Z,2.45
2022-12-29T18:33:59.929Z,2.67
2022-12-29T18:36:27.654Z,1.60
2022-12-29T18:38:54.980Z,1.70
2022-12-29T18:41:25.448Z,1.60
2022-12-29T18:43:52.848Z,1.27
2022-12-29T18:46:23.239Z,1.50
2022-12-29T18:48:51.884Z,1.60
2022-12-29T18:51:26.094Z,1.40
2022-12-29T18:53:54.102Z,1.83
2022-12-29T18:56:23.393Z,1.80
2022-12-29T18:58:51.453Z,2.60
2022-12-29T19:01:27.798Z,2.28
2022-12-29T19:03:55.294Z,2.00
2022-12-29T19:06:23.166Z,2.03
2022-12-29T19:08:50.123Z,1.98
2022-12-29T19:11:17.788Z,1.98
2022-12-29T19:13:44.819Z,2.83
2022-12-29T19:16:21.633Z,2.38
2022-12-29T19:19:05.884Z,2.53
2022-12-29T19:21:36.760Z,2.10
2022-12-29T19:24:04.002Z,2.10
2022-12-29T19:26:36.216Z,2.08
2022-12-29T19:29:04.400Z,1.80
2022-12-29T19:31:31.422Z,1.77
2022-12-29T19:33:58.368Z,2.03
2022-12-29T19:36:25.451Z,2.10
2022-12-29T19:38:53.215Z,3.00
2022-12-29T19:41:21.059Z,1.85
2022-12-29T19:43:47.997Z,1.60
2022-12-29T19:46:18.021Z,2.08
2022-12-29T19:48:45.221Z,1.80
2022-12-29T19:51:17.090Z,2.10
2022-12-29T19:53:45.881Z,1.67
2022-12-29T19:56:14.321Z,1.88
2022-12-29T19:58:46.931Z,1.60
2022-12-29T20:01:22.112Z,1.73
2022-12-29T20:03:50.109Z,1.80
2022-12-29T20:06:17.399Z,1.92
2022-12-29T20:08:44.321Z,1.45
2022-12-29T20:11:17.479Z,1.65
2022-12-29T20:13:44.988Z,1.50
2022-12-29T20:16:16.412Z,1.80
2022-12-29T20:18:44.186Z,1.77
2022-12-29T20:21:21.867Z,1.48
2022-12-29T20:23:51.169Z,1.30
2022-12-29T20:26:28.835Z,1.23
2022-12-29T20:29:00.755Z,1.92
2022-12-29T20:31:34.460Z,1.92
2022-12-29T20:34:01.795Z,2.15
2022-12-29T20:36:33.293Z,2.28
2022-12-29T20:39:06.600Z,1.83
2022-12-29T20:41:33.882Z,1.58
2022-12-29T20:44:02.237Z,1.30
2022-12-29T20:46:36.474Z,0.95
2022-12-29T20:49:08.691Z,1.20
2022-12-29T20:52:04.375Z,0.93
2022-12-29T20:54:23.517Z,1.20
2022-12-29T20:56:51.978Z,1.20
2022-12-29T20:59:28.106Z,1.33
2022-12-29T21:01:56.746Z,1.10
2022-12-29T21:04:23.930Z,1.00
2022-12-29T21:06:50.830Z,1.20
2022-12-29T21:09:18.591Z,1.13
2022-12-29T21:11:46.666Z,1.00
2022-12-29T21:14:13.816Z,1.08
2022-12-29T21:16:40.869Z,1.13
2022-12-29T21:19:07.798Z,1.20
2022-12-29T21:21:35.069Z,0.77
2022-12-29T21:24:05.984Z,1.08
2022-12-29T21:26:33.821Z,0.98
2022-12-29T21:29:03.299Z,1.10
2022-12-29T21:31:37.125Z,1.00
2022-12-29T21:34:06.179Z,1.25
2022-12-29T21:36:33.351Z,0.82
2022-12-29T21:39:00.753Z,1.30
2022-12-29T21:41:27.727Z,1.20
2022-12-29T21:44:13.877Z,1.00
2022-12-29T21:46:43.801Z,1.10
2022-12-29T21:49:10.805Z,1.05
2022-12-29T21:51:49.893Z,1.08
2022-12-29T21:54:41.908Z,1.10
2022-12-29T21:57:10.758Z,1.27
2022-12-29T21:59:56.676Z,1.08
2022-12-29T22:02:45.793Z,1.23
2022-12-29T22:05:34.230Z,0.95
2022-12-29T22:08:21.624Z,1.35
2022-12-29T22:11:07.578Z,1.20
2022-12-29T22:13:38.299Z,1.20
2022-12-29T22:16:08.133Z,1.30
2022-12-29T22:18:35.277Z,0.90
2022-12-29T22:21:10.371Z,0.88
2022-12-29T22:23:38.032Z,0.85
2022-12-29T22:26:08.205Z,1.00
2022-12-29T22:28:40.373Z,1.00
2022-12-29T22:31:27.910Z,1.15
2022-12-29T22:34:01.167Z,1.02
2022-12-29T22:36:29.245Z,1.58
2022-12-29T22:38:56.291Z,1.17
2022-12-29T22:41:23.462Z,1.05
2022-12-29T22:43:50.388Z,1.40
2022-12-29T22:46:17.364Z,1.40
2022-12-29T22:48:44.384Z,1.10
2022-12-29T22:51:11.337Z,1.48
2022-12-29T22:53:39.441Z,1.42
2022-12-29T22:56:13.195Z,1.27
2022-12-29T22:58:46.130Z,1.10
2022-12-29T23:01:16.532Z,0.88
2022-12-29T23:03:44.594Z,1.17
2022-12-29T23:06:13.832Z,1.10
2022-12-29T23:08:40.733Z,0.70
2022-12-29T23:11:10.331Z,1.20
2022-12-29T23:13:38.674Z,1.00
2022-12-29T23:16:05.731Z,1.15
2022-12-29T23:18:32.824Z,1.08
2022-12-29T23:20:59.932Z,0.95
2022-12-29T23:23:49.226Z,0.80
2022-12-29T23:26:18.735Z,1.02
2022-12-29T23:28:46.567Z,1.02
2022-12-29T23:31:14.811Z,0.82
2022-12-29T23:33:41.993Z,0.73
2022-12-29T23:36:10.148Z,0.82
2022-12-29T23:38:37.438Z,0.80
2022-12-29T23:41:04.671Z,0.75
2022-12-29T23:43:32.013Z,0.77
2022-12-29T23:45:59.250Z,1.35
2022-12-29T23:48:26.171Z,1.13
2022-12-29T23:50:53.114Z,0.90
2022-12-29T23:53:20.015Z,0.95
2022-12-29T23:55:54.709Z,0.90
2022-12-29T23:58:22.557Z,1.15
